sensor_id;sensor_type;location;lat;lon;timestamp;pressure;altitude;pressure_sealevel;temperature;humidity
71805;BME280;59654;52.216;5.616;2022-12-07T00:00:18;101617.31;;;1.42;92.01
71805;BME280;59654;52.216;5.616;2022-12-07T00:00:50;101618.19;;;1.38;92.68
71805;BME280;59654;52.216;5.616;2022-12-07T00:01:30;101617.28;;;1.36;92.12
71805;BME280;59654;52.216;5.616;2022-12-07T00:02:02;101618.97;;;1.32;92.04
71805;BME280;59654;52.216;5.616;2022-12-07T00:02:33;101617.22;;;1.31;92.30
71805;BME280;59654;52.216;5.616;2022-12-07T00:03:04;101615.44;;;1.30;92.66
71805;BME280;59654;52.216;5.616;2022-12-07T00:03:36;101623.28;;;1.27;92.44
71805;BME280;59654;52.216;5.616;2022-12-07T00:04:10;101618.88;;;1.25;92.72
71805;BME280;59654;52.216;5.616;2022-12-07T00:04:42;101626.72;;;1.23;92.92
71805;BME280;59654;52.216;5.616;2022-12-07T00:05:13;101622.34;;;1.20;93.26
71805;BME280;59654;52.216;5.616;2022-12-07T00:05:44;101623.19;;;1.19;93.01
71805;BME280;59654;52.216;5.616;2022-12-07T00:06:16;101626.69;;;1.18;93.72
71805;BME280;59654;52.216;5.616;2022-12-07T00:06:51;101619.69;;;1.19;93.68
71805;BME280;59654;52.216;5.616;2022-12-07T00:07:23;101618.81;;;1.18;93.97
71805;BME280;59654;52.216;5.616;2022-12-07T00:07:53;101617.09;;;1.20;94.59
71805;BME280;59654;52.216;5.616;2022-12-07T00:08:24;101618.84;;;1.21;94.89
71805;BME280;59654;52.216;5.616;2022-12-07T00:08:55;101613.59;;;1.23;95.17
71805;BME280;59654;52.216;5.616;2022-12-07T00:09:26;101617.13;;;1.27;94.59
71805;BME280;59654;52.216;5.616;2022-12-07T00:09:56;101615.41;;;1.27;94.80
71805;BME280;59654;52.216;5.616;2022-12-07T00:10:27;101611.94;;;1.30;95.14
71805;BME280;59654;52.216;5.616;2022-12-07T00:11:19;101618.94;;;1.31;94.98
71805;BME280;59654;52.216;5.616;2022-12-07T00:11:51;101614.56;;;1.31;95.09
71805;BME280;59654;52.216;5.616;2022-12-07T00:12:22;101625.09;;;1.33;94.68
71805;BME280;59654;52.216;5.616;2022-12-07T00:12:53;101622.50;;;1.34;94.92
71805;BME280;59654;52.216;5.616;2022-12-07T00:13:24;101619.91;;;1.36;94.97
71805;BME280;59654;52.216;5.616;2022-12-07T00:14:01;101620.78;;;1.36;94.51
71805;BME280;59654;52.216;5.616;2022-12-07T00:14:33;101622.53;;;1.37;95.00
71805;BME280;59654;52.216;5.616;2022-12-07T00:15:04;101626.06;;;1.38;94.62
71805;BME280;59654;52.216;5.616;2022-12-07T00:15:36;101620.81;;;1.38;94.70
71805;BME280;59654;52.216;5.616;2022-12-07T00:16:13;101625.16;;;1.37;94.66
71805;BME280;59654;52.216;5.616;2022-12-07T00:16:45;101620.78;;;1.36;94.19
71805;BME280;59654;52.216;5.616;2022-12-07T00:17:16;101619.88;;;1.34;94.74
71805;BME280;59654;52.216;5.616;2022-12-07T00:17:46;101618.13;;;1.35;94.97
71805;BME280;59654;52.216;5.616;2022-12-07T00:18:17;101618.13;;;1.35;94.73
71805;BME280;59654;52.216;5.616;2022-12-07T00:18:48;101621.63;;;1.34;94.42
71805;BME280;59654;52.216;5.616;2022-12-07T00:19:19;101619.84;;;1.33;94.71
71805;BME280;59654;52.216;5.616;2022-12-07T00:19:50;101615.44;;;1.30;94.69
71805;BME280;59654;52.216;5.616;2022-12-07T00:20:20;101619.81;;;1.30;93.98
71805;BME280;59654;52.216;5.616;2022-12-07T00:20:51;101614.53;;;1.28;94.22
71805;BME280;59654;52.216;5.616;2022-12-07T00:21:28;101617.13;;;1.27;93.99
71805;BME280;59654;52.216;5.616;2022-12-07T00:22:00;101617.97;;;1.22;93.59
71805;BME280;59654;52.216;5.616;2022-12-07T00:22:31;101612.72;;;1.21;94.19
71805;BME280;59654;52.216;5.616;2022-12-07T00:23:01;101616.19;;;1.20;94.58
71805;BME280;59654;52.216;5.616;2022-12-07T00:23:33;101610.91;;;1.17;93.91
71805;BME280;59654;52.216;5.616;2022-12-07T00:24:05;101610.88;;;1.15;94.21
71805;BME280;59654;52.216;5.616;2022-12-07T00:24:36;101614.38;;;1.14;93.91
71805;BME280;59654;52.216;5.616;2022-12-07T00:25:07;101612.59;;;1.13;94.11
71805;BME280;59654;52.216;5.616;2022-12-07T00:25:38;101612.63;;;1.15;94.85
71805;BME280;59654;52.216;5.616;2022-12-07T00:26:12;101617.03;;;1.16;94.25
71805;BME280;59654;52.216;5.616;2022-12-07T00:26:44;101608.25;;;1.15;94.94
71805;BME280;59654;52.216;5.616;2022-12-07T00:27:15;101612.66;;;1.16;94.82
71805;BME280;59654;52.216;5.616;2022-12-07T00:27:46;101608.31;;;1.18;94.35
71805;BME280;59654;52.216;5.616;2022-12-07T00:28:17;101617.03;;;1.17;94.06
71805;BME280;59654;52.216;5.616;2022-12-07T00:28:53;101610.91;;;1.17;93.80
71805;BME280;59654;52.216;5.616;2022-12-07T00:29:26;101606.50;;;1.16;93.10
71805;BME280;59654;52.216;5.616;2022-12-07T00:29:56;101616.13;;;1.15;92.94
71805;BME280;59654;52.216;5.616;2022-12-07T00:30:27;101604.75;;;1.15;92.75
71805;BME280;59654;52.216;5.616;2022-12-07T00:31:03;101601.22;;;1.13;92.87
71805;BME280;59654;52.216;5.616;2022-12-07T00:31:36;101610.84;;;1.12;92.60
71805;BME280;59654;52.216;5.616;2022-12-07T00:32:09;101607.34;;;1.12;93.07
71805;BME280;59654;52.216;5.616;2022-12-07T00:32:40;101606.44;;;1.11;92.62
71805;BME280;59654;52.216;5.616;2022-12-07T00:33:10;101606.44;;;1.11;93.24
71805;BME280;59654;52.216;5.616;2022-12-07T00:33:41;101602.97;;;1.12;92.94
71805;BME280;59654;52.216;5.616;2022-12-07T00:34:15;101602.97;;;1.12;92.91
71805;BME280;59654;52.216;5.616;2022-12-07T00:34:49;101604.72;;;1.13;93.54
71805;BME280;59654;52.216;5.616;2022-12-07T00:35:20;101604.72;;;1.13;93.42
71805;BME280;59654;52.216;5.616;2022-12-07T00:35:55;101602.97;;;1.12;93.21
71805;BME280;59654;52.216;5.616;2022-12-07T00:36:27;101597.72;;;1.12;93.67
71805;BME280;59654;52.216;5.616;2022-12-07T00:36:58;101601.19;;;1.11;94.21
71805;BME280;59654;52.216;5.616;2022-12-07T00:37:29;101597.72;;;1.12;93.65
71805;BME280;59654;52.216;5.616;2022-12-07T00:38:00;101595.09;;;1.12;93.61
71805;BME280;59654;52.216;5.616;2022-12-07T00:38:33;101593.34;;;1.13;94.04
71805;BME280;59654;52.216;5.616;2022-12-07T00:39:04;101596.84;;;1.13;93.73
71805;BME280;59654;52.216;5.616;2022-12-07T00:39:35;101591.63;;;1.15;93.61
71805;BME280;59654;52.216;5.616;2022-12-07T00:40:06;101597.72;;;1.14;94.23
71805;BME280;59654;52.216;5.616;2022-12-07T00:40:37;101594.22;;;1.13;93.36
71805;BME280;59654;52.216;5.616;2022-12-07T00:41:20;101598.59;;;1.13;93.38
71805;BME280;59654;52.216;5.616;2022-12-07T00:41:51;101602.97;;;1.12;93.75
71805;BME280;59654;52.216;5.616;2022-12-07T00:42:22;101599.44;;;1.10;93.26
71805;BME280;59654;52.216;5.616;2022-12-07T00:42:53;101599.44;;;1.10;93.17
71805;BME280;59654;52.216;5.616;2022-12-07T00:43:24;101600.31;;;1.11;93.17
71805;BME280;59654;52.216;5.616;2022-12-07T00:43:57;101601.19;;;1.11;93.22
71805;BME280;59654;52.216;5.616;2022-12-07T00:44:27;101602.09;;;1.12;93.48
71805;BME280;59654;52.216;5.616;2022-12-07T00:44:58;101591.56;;;1.10;93.12
71805;BME280;59654;52.216;5.616;2022-12-07T00:45:29;101597.66;;;1.09;93.64
71805;BME280;59654;52.216;5.616;2022-12-07T00:46:00;101593.28;;;1.10;93.29
71805;BME280;59654;52.216;5.616;2022-12-07T00:46:31;101594.19;;;1.10;93.04
71805;BME280;59654;52.216;5.616;2022-12-07T00:47:01;101589.81;;;1.11;93.17
71805;BME280;59654;52.216;5.616;2022-12-07T00:47:32;101588.94;;;1.10;93.65
71805;BME280;59654;52.216;5.616;2022-12-07T00:48:03;101596.81;;;1.10;92.96
71805;BME280;59654;52.216;5.616;2022-12-07T00:48:34;101590.66;;;1.08;93.40
71805;BME280;59654;52.216;5.616;2022-12-07T00:49:05;101591.53;;;1.06;92.97
71805;BME280;59654;52.216;5.616;2022-12-07T00:49:36;101595.88;;;1.04;92.65
71805;BME280;59654;52.216;5.616;2022-12-07T00:50:08;101596.75;;;1.04;93.24
71805;BME280;59654;52.216;5.616;2022-12-07T00:50:39;101596.72;;;1.03;92.61
71805;BME280;59654;52.216;5.616;2022-12-07T00:51:11;101601.06;;;1.01;92.28
71805;BME280;59654;52.216;5.616;2022-12-07T00:51:43;101596.69;;;1.00;92.40
71805;BME280;59654;52.216;5.616;2022-12-07T00:52:14;101597.50;;;0.97;92.63
71805;BME280;59654;52.216;5.616;2022-12-07T00:52:44;101590.50;;;0.96;93.34
71805;BME280;59654;52.216;5.616;2022-12-07T00:53:16;101594.88;;;0.96;92.73
71805;BME280;59654;52.216;5.616;2022-12-07T00:53:47;101593.06;;;0.93;92.81
71805;BME280;59654;52.216;5.616;2022-12-07T00:54:18;101592.19;;;0.91;92.71
71805;BME280;59654;52.216;5.616;2022-12-07T00:54:49;101597.41;;;0.88;92.86
71805;BME280;59654;52.216;5.616;2022-12-07T00:55:19;101594.75;;;0.85;92.17
71805;BME280;59654;52.216;5.616;2022-12-07T00:55:50;101593.84;;;0.84;93.00
71805;BME280;59654;52.216;5.616;2022-12-07T00:56:27;101586.81;;;0.82;92.67
71805;BME280;59654;52.216;5.616;2022-12-07T00:56:59;101592.94;;;0.81;93.11
71805;BME280;59654;52.216;5.616;2022-12-07T00:57:30;101594.66;;;0.80;93.37
71805;BME280;59654;52.216;5.616;2022-12-07T00:58:02;101593.78;;;0.80;93.21
71805;BME280;59654;52.216;5.616;2022-12-07T00:58:33;101590.31;;;0.81;93.50
71805;BME280;59654;52.216;5.616;2022-12-07T00:59:05;101585.03;;;0.79;93.67
71805;BME280;59654;52.216;5.616;2022-12-07T00:59:36;101588.53;;;0.80;93.24
71805;BME280;59654;52.216;5.616;2022-12-07T01:00:07;101585.03;;;0.79;93.80
71805;BME280;59654;52.216;5.616;2022-12-07T01:00:41;101588.56;;;0.81;92.89
71805;BME280;59654;52.216;5.616;2022-12-07T01:01:13;101590.28;;;0.79;93.20
71805;BME280;59654;52.216;5.616;2022-12-07T01:01:43;101584.16;;;0.79;92.96
71805;BME280;59654;52.216;5.616;2022-12-07T01:02:14;101585.03;;;0.79;92.94
71805;BME280;59654;52.216;5.616;2022-12-07T01:02:45;101581.53;;;0.80;92.94
71805;BME280;59654;52.216;5.616;2022-12-07T01:03:16;101583.28;;;0.80;92.53
71805;BME280;59654;52.216;5.616;2022-12-07T01:03:48;101578.91;;;0.79;92.54
71805;BME280;59654;52.216;5.616;2022-12-07T01:04:19;101580.63;;;0.77;92.83
71805;BME280;59654;52.216;5.616;2022-12-07T01:04:49;101582.34;;;0.76;91.96
71805;BME280;59654;52.216;5.616;2022-12-07T01:05:20;101573.59;;;0.76;92.22
71805;BME280;59654;52.216;5.616;2022-12-07T01:05:56;101574.47;;;0.75;92.63
71805;BME280;59654;52.216;5.616;2022-12-07T01:06:27;101576.19;;;0.74;92.20
71805;BME280;59654;52.216;5.616;2022-12-07T01:06:58;101577.09;;;0.73;92.28
71805;BME280;59654;52.216;5.616;2022-12-07T01:07:29;101577.94;;;0.72;92.23
71805;BME280;59654;52.216;5.616;2022-12-07T01:08:00;101577.94;;;0.71;92.06
71805;BME280;59654;52.216;5.616;2022-12-07T01:08:31;101576.16;;;0.70;91.94
71805;BME280;59654;52.216;5.616;2022-12-07T01:09:03;101581.41;;;0.70;92.47
71805;BME280;59654;52.216;5.616;2022-12-07T01:09:35;101583.16;;;0.69;93.12
71805;BME280;59654;52.216;5.616;2022-12-07T01:10:06;101583.16;;;0.69;92.84
71805;BME280;59654;52.216;5.616;2022-12-07T01:10:37;101583.13;;;0.68;93.28
71805;BME280;59654;52.216;5.616;2022-12-07T01:11:13;101579.63;;;0.67;93.36
71805;BME280;59654;52.216;5.616;2022-12-07T01:11:46;101577.00;;;0.67;93.72
71805;BME280;59654;52.216;5.616;2022-12-07T01:12:17;101584.88;;;0.67;93.32
71805;BME280;59654;52.216;5.616;2022-12-07T01:12:47;101590.13;;;0.67;94.05
71805;BME280;59654;52.216;5.616;2022-12-07T01:13:18;101584.00;;;0.68;93.95
71805;BME280;59654;52.216;5.616;2022-12-07T01:13:51;101588.34;;;0.66;92.95
71805;BME280;59654;52.216;5.616;2022-12-07T01:14:22;101583.06;;;0.65;93.12
71805;BME280;59654;52.216;5.616;2022-12-07T01:14:53;101586.56;;;0.64;93.14
71805;BME280;59654;52.216;5.616;2022-12-07T01:15:25;101582.16;;;0.63;92.53
71805;BME280;59654;52.216;5.616;2022-12-07T01:15:58;101583.00;;;0.60;92.67
71805;BME280;59654;52.216;5.616;2022-12-07T01:16:31;101587.34;;;0.58;92.11
71805;BME280;59654;52.216;5.616;2022-12-07T01:17:02;101590.81;;;0.56;92.66
71805;BME280;59654;52.216;5.616;2022-12-07T01:17:34;101579.44;;;0.54;92.67
71805;BME280;59654;52.216;5.616;2022-12-07T01:18:05;101591.63;;;0.51;92.40
71805;BME280;59654;52.216;5.616;2022-12-07T01:18:36;101582.84;;;0.49;92.41
71805;BME280;59654;52.216;5.616;2022-12-07T01:19:07;101588.09;;;0.49;92.64
71805;BME280;59654;52.216;5.616;2022-12-07T01:19:38;101584.56;;;0.47;92.83
71805;BME280;59654;52.216;5.616;2022-12-07T01:20:09;101588.03;;;0.45;93.00
71805;BME280;59654;52.216;5.616;2022-12-07T01:20:40;101591.47;;;0.41;92.87
71805;BME280;59654;52.216;5.616;2022-12-07T01:21:17;101591.47;;;0.39;93.34
71805;BME280;59654;52.216;5.616;2022-12-07T01:22:08;101591.47;;;0.39;92.90
71805;BME280;59654;52.216;5.616;2022-12-07T01:22:40;101588.81;;;0.38;93.24
71805;BME280;59654;52.216;5.616;2022-12-07T01:23:12;101592.28;;;0.37;93.33
71805;BME280;59654;52.216;5.616;2022-12-07T01:23:43;101591.44;;;0.38;92.90
71805;BME280;59654;52.216;5.616;2022-12-07T01:24:14;101583.56;;;0.38;93.45
71805;BME280;59654;52.216;5.616;2022-12-07T01:24:45;101585.31;;;0.39;93.71
71805;BME280;59654;52.216;5.616;2022-12-07T01:25:18;101592.34;;;0.40;93.28
71805;BME280;59654;52.216;5.616;2022-12-07T01:26:00;101587.09;;;0.40;93.57
71805;BME280;59654;52.216;5.616;2022-12-07T01:26:33;101595.84;;;0.42;93.44
71805;BME280;59654;52.216;5.616;2022-12-07T01:27:04;101590.59;;;0.42;93.81
71805;BME280;59654;52.216;5.616;2022-12-07T01:27:35;101589.72;;;0.41;93.54
71805;BME280;59654;52.216;5.616;2022-12-07T01:28:06;101593.25;;;0.43;92.97
71805;BME280;59654;52.216;5.616;2022-12-07T01:28:36;101592.38;;;0.44;93.19
71805;BME280;59654;52.216;5.616;2022-12-07T01:29:07;101589.75;;;0.44;93.19
71805;BME280;59654;52.216;5.616;2022-12-07T01:29:38;101590.69;;;0.46;92.91
71805;BME280;59654;52.216;5.616;2022-12-07T01:30:10;101596.81;;;0.47;92.93
71805;BME280;59654;52.216;5.616;2022-12-07T01:30:41;101592.41;;;0.46;93.38
71805;BME280;59654;52.216;5.616;2022-12-07T01:31:15;101591.50;;;0.44;93.17
71805;BME280;59654;52.216;5.616;2022-12-07T01:31:49;101588.00;;;0.43;93.57
71805;BME280;59654;52.216;5.616;2022-12-07T01:32:20;101593.25;;;0.43;93.74
71805;BME280;59654;52.216;5.616;2022-12-07T01:32:50;101594.13;;;0.44;93.79
71805;BME280;59654;52.216;5.616;2022-12-07T01:33:21;101591.50;;;0.44;94.14
71805;BME280;59654;52.216;5.616;2022-12-07T01:33:55;101590.63;;;0.43;93.61
71805;BME280;59654;52.216;5.616;2022-12-07T01:34:27;101595.94;;;0.48;94.10
71805;BME280;59654;52.216;5.616;2022-12-07T01:34:58;101593.28;;;0.46;93.91
71805;BME280;59654;52.216;5.616;2022-12-07T01:35:29;101590.69;;;0.48;93.90
71805;BME280;59654;52.216;5.616;2022-12-07T01:36:19;101591.56;;;0.47;93.96
71805;BME280;59654;52.216;5.616;2022-12-07T01:36:51;101595.91;;;0.46;93.45
71805;BME280;59654;52.216;5.616;2022-12-07T01:37:23;101599.41;;;0.45;93.65
71805;BME280;59654;52.216;5.616;2022-12-07T01:37:53;101586.28;;;0.45;93.65
71805;BME280;59654;52.216;5.616;2022-12-07T01:38:24;101589.75;;;0.44;93.70
71805;BME280;59654;52.216;5.616;2022-12-07T01:38:58;101594.13;;;0.44;93.58
71805;BME280;59654;52.216;5.616;2022-12-07T01:39:30;101589.75;;;0.43;93.57
71805;BME280;59654;52.216;5.616;2022-12-07T01:40:01;101594.09;;;0.42;93.35
71805;BME280;59654;52.216;5.616;2022-12-07T01:40:33;101594.97;;;0.41;93.49
71805;BME280;59654;52.216;5.616;2022-12-07T01:41:04;101594.09;;;0.42;93.03
71805;BME280;59654;52.216;5.616;2022-12-07T01:41:38;101602.81;;;0.41;92.97
71805;BME280;59654;52.216;5.616;2022-12-07T01:42:13;101598.47;;;0.40;93.57
71805;BME280;59654;52.216;5.616;2022-12-07T01:42:44;101594.97;;;0.40;93.61
71805;BME280;59654;52.216;5.616;2022-12-07T01:43:17;101590.56;;;0.37;93.60
71805;BME280;59654;52.216;5.616;2022-12-07T01:45:48;101597.47;;;0.34;93.05
71805;BME280;59654;52.216;5.616;2022-12-07T01:46:18;101599.19;;;0.32;93.14
71805;BME280;59654;52.216;5.616;2022-12-07T01:46:57;101600.94;;;0.31;92.73
71805;BME280;59654;52.216;5.616;2022-12-07T01:47:29;101600.88;;;0.28;92.66
71805;BME280;59654;52.216;5.616;2022-12-07T01:48:01;101595.63;;;0.28;92.67
71805;BME280;59654;52.216;5.616;2022-12-07T01:48:40;101600.88;;;0.28;92.96
71805;BME280;59654;52.216;5.616;2022-12-07T01:49:18;101595.59;;;0.24;92.63
71805;BME280;59654;52.216;5.616;2022-12-07T01:49:53;101599.88;;;0.19;92.00
71805;BME280;59654;52.216;5.616;2022-12-07T01:50:27;101603.28;;;0.14;92.56
71805;BME280;59654;52.216;5.616;2022-12-07T01:51:09;101597.06;;;0.09;92.34
71805;BME280;59654;52.216;5.616;2022-12-07T01:51:43;101600.56;;;0.07;92.08
71805;BME280;59654;52.216;5.616;2022-12-07T01:52:21;101609.22;;;0.03;92.29
71805;BME280;59654;52.216;5.616;2022-12-07T01:52:57;101608.25;;;-0.02;92.37
71805;BME280;59654;52.216;5.616;2022-12-07T01:53:30;101601.16;;;-0.06;92.43
71805;BME280;59654;52.216;5.616;2022-12-07T01:54:02;101595.00;;;-0.11;92.45
71805;BME280;59654;52.216;5.616;2022-12-07T01:54:34;101606.28;;;-0.14;92.23
71805;BME280;59654;52.216;5.616;2022-12-07T01:55:10;101600.16;;;-0.16;92.86
71805;BME280;59654;52.216;5.616;2022-12-07T01:55:47;101598.34;;;-0.19;92.75
71805;BME280;59654;52.216;5.616;2022-12-07T01:56:25;101595.72;;;-0.19;93.46
71805;BME280;59654;52.216;5.616;2022-12-07T01:56:58;101601.84;;;-0.18;93.95
71805;BME280;59654;52.216;5.616;2022-12-07T01:57:32;101600.09;;;-0.19;93.73
71805;BME280;59654;52.216;5.616;2022-12-07T01:58:04;101594.84;;;-0.19;94.37
71805;BME280;59654;52.216;5.616;2022-12-07T01:58:36;101597.50;;;-0.17;94.36
71805;BME280;59654;52.216;5.616;2022-12-07T01:59:07;101595.78;;;-0.15;94.71
71805;BME280;59654;52.216;5.616;2022-12-07T01:59:39;101595.84;;;-0.12;94.19
71805;BME280;59654;52.216;5.616;2022-12-07T02:00:11;101591.50;;;-0.12;93.73
71805;BME280;59654;52.216;5.616;2022-12-07T02:00:45;101596.75;;;-0.10;94.22
71805;BME280;59654;52.216;5.616;2022-12-07T02:01:16;101589.78;;;-0.10;93.85
71805;BME280;59654;52.216;5.616;2022-12-07T02:01:47;101597.69;;;-0.05;93.81
71805;BME280;59654;52.216;5.616;2022-12-07T02:02:33;101595.09;;;-0.04;94.33
71805;BME280;59654;52.216;5.616;2022-12-07T02:03:46;101599.47;;;-0.04;94.33
71805;BME280;59654;52.216;5.616;2022-12-07T02:04:18;101602.94;;;-0.05;94.38
71805;BME280;59654;52.216;5.616;2022-12-07T02:04:51;101596.00;;;-0.03;94.08
71805;BME280;59654;52.216;5.616;2022-12-07T02:05:24;101598.59;;;-0.03;94.19
71805;BME280;59654;52.216;5.616;2022-12-07T02:05:56;101594.22;;;-0.04;94.05
71805;BME280;59654;52.216;5.616;2022-12-07T02:06:30;101595.06;;;-0.05;93.81
71805;BME280;59654;52.216;5.616;2022-12-07T02:07:03;101596.78;;;-0.07;93.75
71805;BME280;59654;52.216;5.616;2022-12-07T02:07:38;101596.78;;;-0.07;93.73
71805;BME280;59654;52.216;5.616;2022-12-07T02:08:10;101595.03;;;-0.07;93.79
71805;BME280;59654;52.216;5.616;2022-12-07T02:08:43;101595.91;;;-0.09;94.13
71805;BME280;59654;52.216;5.616;2022-12-07T02:09:14;101591.53;;;-0.09;94.40
71805;BME280;59654;52.216;5.616;2022-12-07T02:09:45;101586.31;;;-0.07;93.98
71805;BME280;59654;52.216;5.616;2022-12-07T02:10:19;101589.81;;;-0.07;94.37
71805;BME280;59654;52.216;5.616;2022-12-07T02:10:55;101588.09;;;-0.05;94.01
71805;BME280;59654;52.216;5.616;2022-12-07T02:11:29;101590.72;;;-0.05;94.31
71805;BME280;59654;52.216;5.616;2022-12-07T02:12:01;101589.00;;;-0.03;94.07
71805;BME280;59654;52.216;5.616;2022-12-07T02:12:33;101590.78;;;-0.02;94.48
71805;BME280;59654;52.216;5.616;2022-12-07T02:13:17;101584.69;;;-0.01;94.37
71805;BME280;59654;52.216;5.616;2022-12-07T02:13:51;101587.31;;;-0.01;94.77
71805;BME280;59654;52.216;5.616;2022-12-07T02:14:22;101581.19;;;0.00;94.63
71805;BME280;59654;52.216;5.616;2022-12-07T02:14:53;101583.84;;;0.02;94.61
71805;BME280;59654;52.216;5.616;2022-12-07T02:15:48;101583.91;;;0.05;93.86
71805;BME280;59654;52.216;5.616;2022-12-07T02:16:46;101576.94;;;0.05;93.97
71805;BME280;59654;52.216;5.616;2022-12-07T02:17:30;101581.34;;;0.08;94.36
71805;BME280;59654;52.216;5.616;2022-12-07T02:18:18;101574.38;;;0.08;93.74
71805;BME280;59654;52.216;5.616;2022-12-07T02:21:22;101584.00;;;0.11;93.55
71805;BME280;59654;52.216;5.616;2022-12-07T02:22:42;101580.53;;;0.13;93.56
71805;BME280;59654;52.216;5.616;2022-12-07T02:24:54;101584.06;;;0.15;93.21
71805;BME280;59654;52.216;5.616;2022-12-07T02:25:58;101583.09;;;0.10;93.69
71805;BME280;59654;52.216;5.616;2022-12-07T02:26:55;101578.72;;;0.09;93.58
71805;BME280;59654;52.216;5.616;2022-12-07T02:28:28;101576.97;;;0.07;93.77
71805;BME280;59654;52.216;5.616;2022-12-07T02:30:18;101575.00;;;-0.05;93.24
71805;BME280;59654;52.216;5.616;2022-12-07T02:30:54;101581.09;;;-0.06;93.34
71805;BME280;59654;52.216;5.616;2022-12-07T02:31:30;101581.94;;;-0.08;93.57
71805;BME280;59654;52.216;5.616;2022-12-07T02:32:13;101584.56;;;-0.08;93.71
71805;BME280;59654;52.216;5.616;2022-12-07T02:33:43;101587.19;;;-0.07;94.29
71805;BME280;59654;52.216;5.616;2022-12-07T02:34:22;101582.81;;;-0.09;93.83
71805;BME280;59654;52.216;5.616;2022-12-07T02:35:57;101588.97;;;-0.04;94.03
71805;BME280;59654;52.216;5.616;2022-12-07T02:36:29;101590.75;;;-0.03;93.49
71805;BME280;59654;52.216;5.616;2022-12-07T02:37:33;101591.63;;;-0.03;93.93
71805;BME280;59654;52.216;5.616;2022-12-07T02:38:21;101586.41;;;-0.01;94.04
71805;BME280;59654;52.216;5.616;2022-12-07T02:39:00;101588.19;;;-0.00;94.35
71805;BME280;59654;52.216;5.616;2022-12-07T02:39:55;101587.31;;;0.01;93.94
71805;BME280;59654;52.216;5.616;2022-12-07T02:40:57;101576.88;;;0.02;94.35
71805;BME280;59654;52.216;5.616;2022-12-07T02:42:07;101583.06;;;0.06;94.65
71805;BME280;59654;52.216;5.616;2022-12-07T02:42:49;101583.09;;;0.07;94.20
71805;BME280;59654;52.216;5.616;2022-12-07T02:43:42;101578.72;;;0.09;94.40
71805;BME280;59654;52.216;5.616;2022-12-07T02:44:27;101579.63;;;0.11;94.49
71805;BME280;59654;52.216;5.616;2022-12-07T02:45:01;101584.03;;;0.12;94.64
71805;BME280;59654;52.216;5.616;2022-12-07T02:45:36;101575.31;;;0.15;94.46
71805;BME280;59654;52.216;5.616;2022-12-07T02:46:17;101579.69;;;0.14;93.92
71805;BME280;59654;52.216;5.616;2022-12-07T02:47:02;101577.09;;;0.16;93.17
71805;BME280;59654;52.216;5.616;2022-12-07T02:47:37;101576.22;;;0.15;92.95
71805;BME280;59654;52.216;5.616;2022-12-07T02:48:12;101575.31;;;0.15;92.85
71805;BME280;59654;52.216;5.616;2022-12-07T02:48:45;101573.63;;;0.17;93.27
71805;BME280;59654;52.216;5.616;2022-12-07T02:49:18;101581.50;;;0.19;93.20
71805;BME280;59654;52.216;5.616;2022-12-07T02:49:51;101565.78;;;0.19;93.43
71805;BME280;59654;52.216;5.616;2022-12-07T02:50:22;101570.16;;;0.20;93.57
71805;BME280;59654;52.216;5.616;2022-12-07T02:50:54;101571.94;;;0.21;93.50
71805;BME280;59654;52.216;5.616;2022-12-07T02:51:27;101576.34;;;0.23;94.00
71805;BME280;59654;52.216;5.616;2022-12-07T02:52:00;101571.09;;;0.23;93.58
71805;BME280;59654;52.216;5.616;2022-12-07T02:52:31;101573.75;;;0.25;93.73
71805;BME280;59654;52.216;5.616;2022-12-07T02:53:02;101571.13;;;0.25;94.18
71805;BME280;59654;52.216;5.616;2022-12-07T02:53:34;101572.88;;;0.24;94.28
71805;BME280;59654;52.216;5.616;2022-12-07T02:54:12;101580.72;;;0.26;93.40
71805;BME280;59654;52.216;5.616;2022-12-07T02:54:49;101585.09;;;0.24;93.94
71805;BME280;59654;52.216;5.616;2022-12-07T02:55:37;101574.59;;;0.22;93.33
71805;BME280;59654;52.216;5.616;2022-12-07T02:58:31;101580.66;;;0.20;93.82
71805;BME280;59654;52.216;5.616;2022-12-07T03:00:34;101583.28;;;0.20;95.19
71805;BME280;59654;52.216;5.616;2022-12-07T03:03:11;101585.13;;;0.27;95.08
71805;BME280;59654;52.216;5.616;2022-12-07T03:03:53;101578.16;;;0.29;95.16
71805;BME280;59654;52.216;5.616;2022-12-07T03:07:07;101573.91;;;0.35;95.64
71805;BME280;59654;52.216;5.616;2022-12-07T03:09:01;101577.47;;;0.39;94.88
71805;BME280;59654;52.216;5.616;2022-12-07T03:11:06;101578.38;;;0.42;94.87
71805;BME280;59654;52.216;5.616;2022-12-07T03:11:46;101572.25;;;0.43;94.57
71805;BME280;59654;52.216;5.616;2022-12-07T03:12:27;101578.38;;;0.44;94.65
71805;BME280;59654;52.216;5.616;2022-12-07T03:13:05;101575.78;;;0.45;94.75
71805;BME280;59654;52.216;5.616;2022-12-07T03:13:49;101574.88;;;0.43;94.51
71805;BME280;59654;52.216;5.616;2022-12-07T03:14:36;101573.13;;;0.42;94.65
71805;BME280;59654;52.216;5.616;2022-12-07T03:15:24;101574.84;;;0.42;93.89
71805;BME280;59654;52.216;5.616;2022-12-07T03:16:52;101585.31;;;0.39;94.17
71805;BME280;59654;52.216;5.616;2022-12-07T03:17:33;101578.31;;;0.38;94.27
71805;BME280;59654;52.216;5.616;2022-12-07T03:18:10;101579.19;;;0.38;93.88
71805;BME280;59654;52.216;5.616;2022-12-07T03:18:55;101577.47;;;0.39;94.59
71805;BME280;59654;52.216;5.616;2022-12-07T03:19:33;101580.97;;;0.39;93.59
71805;BME280;59654;52.216;5.616;2022-12-07T03:20:10;101570.47;;;0.39;93.91
71805;BME280;59654;52.216;5.616;2022-12-07T03:20:45;101572.22;;;0.39;93.37
71805;BME280;59654;52.216;5.616;2022-12-07T03:21:22;101573.06;;;0.38;93.91
71805;BME280;59654;52.216;5.616;2022-12-07T03:22:01;101576.59;;;0.40;93.69
71805;BME280;59654;52.216;5.616;2022-12-07T03:22:38;101580.97;;;0.39;93.28
71805;BME280;59654;52.216;5.616;2022-12-07T03:23:12;101569.59;;;0.39;93.60
71805;BME280;59654;52.216;5.616;2022-12-07T03:23:49;101573.06;;;0.38;93.17
71805;BME280;59654;52.216;5.616;2022-12-07T03:24:57;101568.69;;;0.37;93.60
71805;BME280;59654;52.216;5.616;2022-12-07T03:25:29;101566.91;;;0.34;93.18